Terminal Aerodrome Forecast
Issued by NWS Omaha/Valley, NE

Home | Current Version | Previous Version | Text Only | Print | Product List | Glossary On
Versions: 1 2 3 4 5 6 7 8 9 10 11 12 13 14 15 16 17 18
000
FTUS43 KOAX 111733
TAFOMA
TAF
KOMA 111733Z 1118/1218 32025G36KT P6SM BKN050
     FM120000 34020G30KT P6SM BKN030
     FM120300 34015G25KT P6SM SCT250
     FM120800 33008KT P6SM FEW250
     FM121500 28005KT P6SM BKN060=

USA.gov is the U.S. government's official web portal to all federal, state and local government web resources and services.